sensor_id;sensor_type;location;lat;lon;timestamp;pressure;altitude;pressure_sealevel;temperature;humidity
60642;BME280;46837;52.446;-1.930;2022-09-09T00:00:13;98926.97;;;14.66;79.10
60642;BME280;46837;52.446;-1.930;2022-09-09T00:02:18;98923.86;;;14.68;79.04
60642;BME280;46837;52.446;-1.930;2022-09-09T00:05:18;98921.68;;;14.68;79.15
60642;BME280;46837;52.446;-1.930;2022-09-09T00:06:21;98925.12;;;14.68;79.13
60642;BME280;46837;52.446;-1.930;2022-09-09T00:08:19;98923.99;;;14.70;78.98
60642;BME280;46837;52.446;-1.930;2022-09-09T00:09:19;98924.11;;;14.69;78.92
60642;BME280;46837;52.446;-1.930;2022-09-09T00:11:11;98921.49;;;14.68;78.83
60642;BME280;46837;52.446;-1.930;2022-09-09T00:12:17;98922.40;;;14.67;78.81
60642;BME280;46837;52.446;-1.930;2022-09-09T00:13:16;98921.73;;;14.67;78.68
60642;BME280;46837;52.446;-1.930;2022-09-09T00:14:14;98920.89;;;14.65;78.63
60642;BME280;46837;52.446;-1.930;2022-09-09T00:16:15;98925.16;;;14.63;78.74
60642;BME280;46837;52.446;-1.930;2022-09-09T00:17:19;98929.74;;;14.62;78.71
60642;BME280;46837;52.446;-1.930;2022-09-09T00:19:19;98932.13;;;14.61;78.76
60642;BME280;46837;52.446;-1.930;2022-09-09T00:20:14;98931.86;;;14.61;78.77
60642;BME280;46837;52.446;-1.930;2022-09-09T00:21:12;98934.89;;;14.61;78.72
60642;BME280;46837;52.446;-1.930;2022-09-09T00:22:17;98931.70;;;14.61;78.76
60642;BME280;46837;52.446;-1.930;2022-09-09T00:23:19;98932.48;;;14.60;78.83
60642;BME280;46837;52.446;-1.930;2022-09-09T00:24:18;98931.70;;;14.61;78.91
60642;BME280;46837;52.446;-1.930;2022-09-09T00:25:14;98932.04;;;14.64;78.97
60642;BME280;46837;52.446;-1.930;2022-09-09T00:27:22;98935.25;;;14.68;78.95
60642;BME280;46837;52.446;-1.930;2022-09-09T00:28:14;98937.16;;;14.71;78.99
60642;BME280;46837;52.446;-1.930;2022-09-09T00:30:17;98936.83;;;14.71;79.37
60642;BME280;46837;52.446;-1.930;2022-09-09T00:31:14;98939.20;;;14.72;79.43
60642;BME280;46837;52.446;-1.930;2022-09-09T00:32:14;98937.55;;;14.72;79.53
60642;BME280;46837;52.446;-1.930;2022-09-09T00:33:12;98937.30;;;14.73;79.64
60642;BME280;46837;52.446;-1.930;2022-09-09T00:34:14;98935.91;;;14.75;79.63
60642;BME280;46837;52.446;-1.930;2022-09-09T00:36:13;98934.67;;;14.76;79.76
60642;BME280;46837;52.446;-1.930;2022-09-09T00:37:09;98936.56;;;14.78;79.69
60642;BME280;46837;52.446;-1.930;2022-09-09T00:39:17;98933.03;;;14.80;79.55
60642;BME280;46837;52.446;-1.930;2022-09-09T00:40:18;98933.54;;;14.81;79.51
60642;BME280;46837;52.446;-1.930;2022-09-09T00:42:16;98932.87;;;14.85;79.19
60642;BME280;46837;52.446;-1.930;2022-09-09T00:46:16;98935.27;;;14.60;79.81
60642;BME280;46837;52.446;-1.930;2022-09-09T00:48:11;98933.27;;;14.62;79.87
60642;BME280;46837;52.446;-1.930;2022-09-09T00:49:19;98934.39;;;14.60;79.86
60642;BME280;46837;52.446;-1.930;2022-09-09T00:51:15;98931.57;;;14.65;79.72
60642;BME280;46837;52.446;-1.930;2022-09-09T00:55:17;98930.66;;;14.66;79.24
60642;BME280;46837;52.446;-1.930;2022-09-09T00:56:14;98933.01;;;14.64;79.19
60642;BME280;46837;52.446;-1.930;2022-09-09T00:58:09;98930.38;;;14.63;79.01
60642;BME280;46837;52.446;-1.930;2022-09-09T01:01:13;98930.43;;;14.64;78.84
60642;BME280;46837;52.446;-1.930;2022-09-09T01:02:21;98929.84;;;14.62;78.85
60642;BME280;46837;52.446;-1.930;2022-09-09T01:04:13;98927.70;;;14.60;78.96
60642;BME280;46837;52.446;-1.930;2022-09-09T01:05:18;98927.27;;;14.60;78.89
60642;BME280;46837;52.446;-1.930;2022-09-09T01:06:20;98928.90;;;14.57;79.06
60642;BME280;46837;52.446;-1.930;2022-09-09T01:07:16;98929.44;;;14.60;78.98
60642;BME280;46837;52.446;-1.930;2022-09-09T01:10:13;98928.01;;;14.61;78.92
60642;BME280;46837;52.446;-1.930;2022-09-09T01:11:15;98928.27;;;14.63;78.91
60642;BME280;46837;52.446;-1.930;2022-09-09T01:16:10;98931.10;;;14.63;78.89
60642;BME280;46837;52.446;-1.930;2022-09-09T01:18:13;98928.73;;;14.61;78.85
60642;BME280;46837;52.446;-1.930;2022-09-09T01:19:14;98930.68;;;14.59;78.94
60642;BME280;46837;52.446;-1.930;2022-09-09T01:20:14;98932.24;;;14.58;79.01
60642;BME280;46837;52.446;-1.930;2022-09-09T01:24:19;98928.57;;;14.61;78.88
60642;BME280;46837;52.446;-1.930;2022-09-09T01:27:09;98926.61;;;14.62;79.02
60642;BME280;46837;52.446;-1.930;2022-09-09T01:28:13;98929.41;;;14.60;79.15
60642;BME280;46837;52.446;-1.930;2022-09-09T01:29:14;98927.23;;;14.62;79.33
60642;BME280;46837;52.446;-1.930;2022-09-09T01:30:16;98927.13;;;14.60;79.31
60642;BME280;46837;52.446;-1.930;2022-09-09T01:31:09;98926.92;;;14.63;79.30
60642;BME280;46837;52.446;-1.930;2022-09-09T01:33:15;98927.97;;;14.63;79.14
60642;BME280;46837;52.446;-1.930;2022-09-09T01:34:14;98926.96;;;14.60;79.29
60642;BME280;46837;52.446;-1.930;2022-09-09T01:35:15;98927.46;;;14.60;79.42
60642;BME280;46837;52.446;-1.930;2022-09-09T01:37:09;98924.38;;;14.63;79.33
60642;BME280;46837;52.446;-1.930;2022-09-09T01:38:09;98926.47;;;14.64;79.30
60642;BME280;46837;52.446;-1.930;2022-09-09T01:39:09;98927.66;;;14.62;79.66
60642;BME280;46837;52.446;-1.930;2022-09-09T01:40:09;98929.87;;;14.58;80.18
60642;BME280;46837;52.446;-1.930;2022-09-09T01:41:09;98930.54;;;14.56;80.24
60642;BME280;46837;52.446;-1.930;2022-09-09T01:42:09;98934.27;;;14.58;80.22
60642;BME280;46837;52.446;-1.930;2022-09-09T01:43:09;98929.96;;;14.59;80.16
60642;BME280;46837;52.446;-1.930;2022-09-09T01:44:09;98932.73;;;14.61;80.03
60642;BME280;46837;52.446;-1.930;2022-09-09T01:45:09;98935.27;;;14.58;80.17
60642;BME280;46837;52.446;-1.930;2022-09-09T01:46:09;98934.64;;;14.57;80.26
60642;BME280;46837;52.446;-1.930;2022-09-09T01:47:09;98939.14;;;14.56;80.29
60642;BME280;46837;52.446;-1.930;2022-09-09T01:48:09;98935.56;;;14.57;80.15
60642;BME280;46837;52.446;-1.930;2022-09-09T01:49:09;98938.47;;;14.57;80.17
60642;BME280;46837;52.446;-1.930;2022-09-09T01:50:09;98938.04;;;14.57;80.18
60642;BME280;46837;52.446;-1.930;2022-09-09T01:51:09;98939.62;;;14.59;80.14
60642;BME280;46837;52.446;-1.930;2022-09-09T01:52:09;98938.50;;;14.61;80.02
60642;BME280;46837;52.446;-1.930;2022-09-09T01:53:09;98937.45;;;14.62;79.92
60642;BME280;46837;52.446;-1.930;2022-09-09T01:54:09;98937.51;;;14.63;79.80
60642;BME280;46837;52.446;-1.930;2022-09-09T01:55:09;98936.31;;;14.64;79.66
60642;BME280;46837;52.446;-1.930;2022-09-09T02:00:12;98942.57;;;14.66;79.70
60642;BME280;46837;52.446;-1.930;2022-09-09T02:01:23;98940.79;;;14.66;79.65
60642;BME280;46837;52.446;-1.930;2022-09-09T02:08:20;98950.17;;;14.64;79.91
60642;BME280;46837;52.446;-1.930;2022-09-09T02:09:10;98949.01;;;14.66;79.88
60642;BME280;46837;52.446;-1.930;2022-09-09T02:10:24;98947.83;;;14.69;79.76
60642;BME280;46837;52.446;-1.930;2022-09-09T02:11:14;98946.04;;;14.68;79.84
60642;BME280;46837;52.446;-1.930;2022-09-09T02:12:13;98944.89;;;14.71;79.96
60642;BME280;46837;52.446;-1.930;2022-09-09T02:13:11;98946.63;;;14.68;80.20
60642;BME280;46837;52.446;-1.930;2022-09-09T02:14:14;98947.12;;;14.68;80.36
60642;BME280;46837;52.446;-1.930;2022-09-09T02:15:14;98951.35;;;14.71;80.47
60642;BME280;46837;52.446;-1.930;2022-09-09T02:16:16;98952.09;;;14.71;80.49
60642;BME280;46837;52.446;-1.930;2022-09-09T02:17:13;98952.62;;;14.74;80.37
60642;BME280;46837;52.446;-1.930;2022-09-09T02:18:09;98953.19;;;14.74;80.35
60642;BME280;46837;52.446;-1.930;2022-09-09T02:19:14;98947.46;;;14.77;80.35
60642;BME280;46837;52.446;-1.930;2022-09-09T02:20:12;98953.22;;;14.80;80.18
60642;BME280;46837;52.446;-1.930;2022-09-09T02:21:09;98954.43;;;14.84;80.12
60642;BME280;46837;52.446;-1.930;2022-09-09T02:22:09;98954.25;;;14.85;80.21
60642;BME280;46837;52.446;-1.930;2022-09-09T02:23:09;98953.79;;;14.89;80.04
60642;BME280;46837;52.446;-1.930;2022-09-09T02:24:09;98954.07;;;14.92;79.95
60642;BME280;46837;52.446;-1.930;2022-09-09T02:25:10;98955.01;;;14.94;79.99
60642;BME280;46837;52.446;-1.930;2022-09-09T02:26:10;98953.86;;;14.94;80.07
60642;BME280;46837;52.446;-1.930;2022-09-09T02:27:09;98955.63;;;14.93;80.28
60642;BME280;46837;52.446;-1.930;2022-09-09T02:28:09;98957.19;;;14.96;80.16
60642;BME280;46837;52.446;-1.930;2022-09-09T02:29:23;98956.79;;;14.93;80.40
60642;BME280;46837;52.446;-1.930;2022-09-09T02:30:09;98957.77;;;14.97;80.37
60642;BME280;46837;52.446;-1.930;2022-09-09T02:31:09;98958.75;;;14.97;80.44
60642;BME280;46837;52.446;-1.930;2022-09-09T02:32:12;98959.18;;;15.01;80.35
60642;BME280;46837;52.446;-1.930;2022-09-09T02:33:09;98958.81;;;15.03;80.24
60642;BME280;46837;52.446;-1.930;2022-09-09T02:34:10;98963.46;;;15.07;80.15
60642;BME280;46837;52.446;-1.930;2022-09-09T02:35:10;98962.23;;;15.08;80.16
60642;BME280;46837;52.446;-1.930;2022-09-09T02:36:09;98961.10;;;15.10;80.24
60642;BME280;46837;52.446;-1.930;2022-09-09T02:37:09;98962.86;;;15.13;80.10
60642;BME280;46837;52.446;-1.930;2022-09-09T02:38:10;98964.05;;;15.14;80.30
60642;BME280;46837;52.446;-1.930;2022-09-09T02:39:09;98964.38;;;15.16;80.31
60642;BME280;46837;52.446;-1.930;2022-09-09T02:40:10;98961.41;;;15.16;80.41
60642;BME280;46837;52.446;-1.930;2022-09-09T02:41:09;98964.04;;;15.17;80.48
60642;BME280;46837;52.446;-1.930;2022-09-09T02:42:09;98960.70;;;15.17;80.62
60642;BME280;46837;52.446;-1.930;2022-09-09T02:43:09;98960.18;;;15.20;80.55
60642;BME280;46837;52.446;-1.930;2022-09-09T02:44:13;98958.00;;;15.22;80.41
60642;BME280;46837;52.446;-1.930;2022-09-09T02:45:09;98963.63;;;15.23;80.51
60642;BME280;46837;52.446;-1.930;2022-09-09T02:47:18;98965.31;;;15.28;80.47
60642;BME280;46837;52.446;-1.930;2022-09-09T02:48:20;98964.32;;;15.30;80.34
60642;BME280;46837;52.446;-1.930;2022-09-09T02:50:15;98962.70;;;15.32;80.35
60642;BME280;46837;52.446;-1.930;2022-09-09T02:51:15;98963.12;;;15.34;80.21
60642;BME280;46837;52.446;-1.930;2022-09-09T02:52:13;98962.55;;;15.33;80.37
60642;BME280;46837;52.446;-1.930;2022-09-09T02:53:16;98966.00;;;15.37;80.18
60642;BME280;46837;52.446;-1.930;2022-09-09T02:55:15;98961.77;;;15.37;80.42
60642;BME280;46837;52.446;-1.930;2022-09-09T02:56:16;98959.01;;;15.38;80.50
60642;BME280;46837;52.446;-1.930;2022-09-09T02:57:17;98960.97;;;15.34;80.66
60642;BME280;46837;52.446;-1.930;2022-09-09T02:58:10;98962.96;;;15.32;80.97
60642;BME280;46837;52.446;-1.930;2022-09-09T02:59:09;98960.63;;;15.33;80.88
60642;BME280;46837;52.446;-1.930;2022-09-09T03:00:09;98965.01;;;15.32;80.89
60642;BME280;46837;52.446;-1.930;2022-09-09T03:01:09;98964.30;;;15.32;81.09
60642;BME280;46837;52.446;-1.930;2022-09-09T03:02:09;98967.01;;;15.33;80.89
60642;BME280;46837;52.446;-1.930;2022-09-09T03:03:09;98965.39;;;15.29;81.19
60642;BME280;46837;52.446;-1.930;2022-09-09T03:04:09;98968.02;;;15.33;81.14
60642;BME280;46837;52.446;-1.930;2022-09-09T03:05:09;98969.49;;;15.34;81.04
60642;BME280;46837;52.446;-1.930;2022-09-09T03:06:09;98972.19;;;15.33;81.15
60642;BME280;46837;52.446;-1.930;2022-09-09T03:07:09;98972.38;;;15.32;81.39
60642;BME280;46837;52.446;-1.930;2022-09-09T03:08:09;98973.54;;;15.35;81.20
60642;BME280;46837;52.446;-1.930;2022-09-09T03:09:09;98973.52;;;15.30;81.78
60642;BME280;46837;52.446;-1.930;2022-09-09T03:10:09;98971.53;;;15.31;81.79
60642;BME280;46837;52.446;-1.930;2022-09-09T03:11:09;98973.51;;;15.33;81.69
60642;BME280;46837;52.446;-1.930;2022-09-09T03:12:09;98974.88;;;15.34;81.67
60642;BME280;46837;52.446;-1.930;2022-09-09T03:13:09;98972.07;;;15.36;81.72
60642;BME280;46837;52.446;-1.930;2022-09-09T03:14:09;98972.98;;;15.38;81.67
60642;BME280;46837;52.446;-1.930;2022-09-09T03:15:09;98974.61;;;15.39;81.80
60642;BME280;46837;52.446;-1.930;2022-09-09T03:16:09;98972.47;;;15.42;81.61
60642;BME280;46837;52.446;-1.930;2022-09-09T03:17:09;98972.87;;;15.44;81.60
60642;BME280;46837;52.446;-1.930;2022-09-09T03:18:09;98972.13;;;15.44;81.69
60642;BME280;46837;52.446;-1.930;2022-09-09T03:19:09;98971.04;;;15.44;81.91
60642;BME280;46837;52.446;-1.930;2022-09-09T03:20:09;98973.17;;;15.47;81.70
60642;BME280;46837;52.446;-1.930;2022-09-09T03:21:09;98976.30;;;15.49;81.69
60642;BME280;46837;52.446;-1.930;2022-09-09T03:22:10;98972.95;;;15.50;81.67
60642;BME280;46837;52.446;-1.930;2022-09-09T03:23:09;98974.77;;;15.53;81.63
60642;BME280;46837;52.446;-1.930;2022-09-09T03:24:09;98972.93;;;15.51;81.75
60642;BME280;46837;52.446;-1.930;2022-09-09T03:25:09;98972.68;;;15.53;81.78
60642;BME280;46837;52.446;-1.930;2022-09-09T03:26:09;98974.38;;;15.53;81.80
60642;BME280;46837;52.446;-1.930;2022-09-09T03:27:09;98975.47;;;15.51;81.93
60642;BME280;46837;52.446;-1.930;2022-09-09T03:28:09;98971.96;;;15.50;82.04
60642;BME280;46837;52.446;-1.930;2022-09-09T03:29:11;98969.92;;;15.48;82.17
60642;BME280;46837;52.446;-1.930;2022-09-09T03:30:09;98971.13;;;15.50;82.18
60642;BME280;46837;52.446;-1.930;2022-09-09T03:31:09;98974.56;;;15.50;82.19
60642;BME280;46837;52.446;-1.930;2022-09-09T03:32:09;98973.81;;;15.51;82.15
60642;BME280;46837;52.446;-1.930;2022-09-09T03:33:09;98974.70;;;15.50;82.17
60642;BME280;46837;52.446;-1.930;2022-09-09T03:34:09;98973.47;;;15.52;82.12
60642;BME280;46837;52.446;-1.930;2022-09-09T03:35:09;98974.27;;;15.53;82.12
60642;BME280;46837;52.446;-1.930;2022-09-09T03:36:09;98975.10;;;15.53;82.10
60642;BME280;46837;52.446;-1.930;2022-09-09T03:37:09;98974.44;;;15.53;82.29
60642;BME280;46837;52.446;-1.930;2022-09-09T03:38:09;98976.64;;;15.53;82.23
60642;BME280;46837;52.446;-1.930;2022-09-09T03:39:09;98971.28;;;15.52;82.35
60642;BME280;46837;52.446;-1.930;2022-09-09T03:40:09;98975.63;;;15.51;82.47
60642;BME280;46837;52.446;-1.930;2022-09-09T03:41:10;98975.78;;;15.52;82.36
60642;BME280;46837;52.446;-1.930;2022-09-09T03:42:09;98979.68;;;15.50;82.53
60642;BME280;46837;52.446;-1.930;2022-09-09T03:43:09;98979.50;;;15.48;82.62
60642;BME280;46837;52.446;-1.930;2022-09-09T03:44:09;98978.46;;;15.50;82.54
60642;BME280;46837;52.446;-1.930;2022-09-09T03:45:09;98979.33;;;15.50;82.53
60642;BME280;46837;52.446;-1.930;2022-09-09T03:46:09;98976.58;;;15.50;82.49
60642;BME280;46837;52.446;-1.930;2022-09-09T03:47:09;98975.58;;;15.52;82.55
60642;BME280;46837;52.446;-1.930;2022-09-09T03:48:09;98976.87;;;15.55;82.45
60642;BME280;46837;52.446;-1.930;2022-09-09T03:49:09;98979.09;;;15.55;82.54
60642;BME280;46837;52.446;-1.930;2022-09-09T03:50:11;98980.59;;;15.56;82.52
60642;BME280;46837;52.446;-1.930;2022-09-09T03:51:09;98978.70;;;15.55;82.57
60642;BME280;46837;52.446;-1.930;2022-09-09T03:52:09;98980.41;;;15.55;82.54
60642;BME280;46837;52.446;-1.930;2022-09-09T03:53:09;98978.18;;;15.56;82.59
60642;BME280;46837;52.446;-1.930;2022-09-09T03:54:11;98979.72;;;15.58;82.56
60642;BME280;46837;52.446;-1.930;2022-09-09T03:55:09;98978.80;;;15.58;82.53
60642;BME280;46837;52.446;-1.930;2022-09-09T03:56:09;98977.25;;;15.56;82.70
60642;BME280;46837;52.446;-1.930;2022-09-09T03:57:09;98979.51;;;15.55;82.77
60642;BME280;46837;52.446;-1.930;2022-09-09T03:58:09;98975.99;;;15.56;82.83
60642;BME280;46837;52.446;-1.930;2022-09-09T03:59:09;98972.58;;;15.55;82.91
60642;BME280;46837;52.446;-1.930;2022-09-09T04:00:09;98973.07;;;15.55;82.93
60642;BME280;46837;52.446;-1.930;2022-09-09T04:01:10;98975.10;;;15.56;82.98
60642;BME280;46837;52.446;-1.930;2022-09-09T04:02:09;98972.99;;;15.56;82.88
60642;BME280;46837;52.446;-1.930;2022-09-09T04:03:09;98973.36;;;15.57;82.92
60642;BME280;46837;52.446;-1.930;2022-09-09T04:04:09;98975.24;;;15.54;83.12
60642;BME280;46837;52.446;-1.930;2022-09-09T04:05:09;98974.39;;;15.53;83.18
60642;BME280;46837;52.446;-1.930;2022-09-09T04:06:09;98979.91;;;15.52;83.20
60642;BME280;46837;52.446;-1.930;2022-09-09T04:07:09;98980.50;;;15.50;83.40
60642;BME280;46837;52.446;-1.930;2022-09-09T04:08:09;98980.87;;;15.47;83.44
60642;BME280;46837;52.446;-1.930;2022-09-09T04:09:09;98977.18;;;15.50;83.40
60642;BME280;46837;52.446;-1.930;2022-09-09T04:10:09;98975.51;;;15.49;83.31
60642;BME280;46837;52.446;-1.930;2022-09-09T04:11:09;98977.25;;;15.48;83.42
60642;BME280;46837;52.446;-1.930;2022-09-09T04:12:09;98981.61;;;15.48;83.43
60642;BME280;46837;52.446;-1.930;2022-09-09T04:13:09;98978.46;;;15.47;83.53
60642;BME280;46837;52.446;-1.930;2022-09-09T04:14:09;98980.57;;;15.49;83.43
60642;BME280;46837;52.446;-1.930;2022-09-09T04:15:09;98982.79;;;15.50;83.43
60642;BME280;46837;52.446;-1.930;2022-09-09T04:16:09;98983.52;;;15.50;83.41
60642;BME280;46837;52.446;-1.930;2022-09-09T04:17:09;98987.31;;;15.47;83.68
60642;BME280;46837;52.446;-1.930;2022-09-09T04:18:09;98982.63;;;15.46;83.73
60642;BME280;46837;52.446;-1.930;2022-09-09T04:19:09;98983.25;;;15.47;83.65
60642;BME280;46837;52.446;-1.930;2022-09-09T04:20:09;98985.25;;;15.49;83.70
60642;BME280;46837;52.446;-1.930;2022-09-09T04:21:09;98985.34;;;15.48;83.66
60642;BME280;46837;52.446;-1.930;2022-09-09T04:22:09;98988.80;;;15.50;83.58
60642;BME280;46837;52.446;-1.930;2022-09-09T04:23:09;98990.89;;;15.50;83.57
60642;BME280;46837;52.446;-1.930;2022-09-09T04:24:09;98991.26;;;15.51;83.63
60642;BME280;46837;52.446;-1.930;2022-09-09T04:25:09;98991.28;;;15.50;83.67
60642;BME280;46837;52.446;-1.930;2022-09-09T04:26:09;98991.32;;;15.51;83.67
60642;BME280;46837;52.446;-1.930;2022-09-09T04:27:09;98995.68;;;15.50;83.72
60642;BME280;46837;52.446;-1.930;2022-09-09T04:28:09;98997.19;;;15.50;83.82
60642;BME280;46837;52.446;-1.930;2022-09-09T04:29:10;98993.76;;;15.50;83.74
60642;BME280;46837;52.446;-1.930;2022-09-09T04:30:09;98995.41;;;15.50;83.77
60642;BME280;46837;52.446;-1.930;2022-09-09T04:32:09;99001.96;;;15.50;83.82
60642;BME280;46837;52.446;-1.930;2022-09-09T04:33:09;99001.46;;;15.50;83.84
60642;BME280;46837;52.446;-1.930;2022-09-09T04:34:09;98999.87;;;15.50;83.83
60642;BME280;46837;52.446;-1.930;2022-09-09T04:35:09;99000.06;;;15.52;83.87
60642;BME280;46837;52.446;-1.930;2022-09-09T04:36:09;99001.33;;;15.55;83.67
60642;BME280;46837;52.446;-1.930;2022-09-09T04:37:09;99003.86;;;15.57;83.61
60642;BME280;46837;52.446;-1.930;2022-09-09T04:38:09;99002.14;;;15.57;83.73
60642;BME280;46837;52.446;-1.930;2022-09-09T04:39:09;99002.14;;;15.55;83.93
60642;BME280;46837;52.446;-1.930;2022-09-09T04:40:09;99007.29;;;15.57;83.78
60642;BME280;46837;52.446;-1.930;2022-09-09T04:41:09;99003.00;;;15.57;83.78
60642;BME280;46837;52.446;-1.930;2022-09-09T04:42:09;99006.32;;;15.58;83.83
60642;BME280;46837;52.446;-1.930;2022-09-09T04:43:09;99008.74;;;15.56;83.91
60642;BME280;46837;52.446;-1.930;2022-09-09T04:44:09;99010.20;;;15.54;83.98
60642;BME280;46837;52.446;-1.930;2022-09-09T04:45:09;99005.68;;;15.52;84.14
60642;BME280;46837;52.446;-1.930;2022-09-09T04:46:09;99010.80;;;15.52;84.18
60642;BME280;46837;52.446;-1.930;2022-09-09T04:47:09;99008.36;;;15.53;84.17
60642;BME280;46837;52.446;-1.930;2022-09-09T04:48:09;99010.90;;;15.55;84.05
60642;BME280;46837;52.446;-1.930;2022-09-09T04:49:09;99009.23;;;15.56;84.04
60642;BME280;46837;52.446;-1.930;2022-09-09T04:50:09;99009.52;;;15.56;84.02
60642;BME280;46837;52.446;-1.930;2022-09-09T04:51:10;99009.74;;;15.55;84.10
60642;BME280;46837;52.446;-1.930;2022-09-09T04:52:09;99010.53;;;15.54;84.18
60642;BME280;46837;52.446;-1.930;2022-09-09T04:53:09;99010.79;;;15.54;84.20
60642;BME280;46837;52.446;-1.930;2022-09-09T04:54:09;99012.12;;;15.57;84.06
60642;BME280;46837;52.446;-1.930;2022-09-09T04:55:09;99009.75;;;15.57;84.16
60642;BME280;46837;52.446;-1.930;2022-09-09T04:56:13;99009.96;;;15.59;84.00
60642;BME280;46837;52.446;-1.930;2022-09-09T04:57:10;99011.36;;;15.60;84.00
60642;BME280;46837;52.446;-1.930;2022-09-09T04:58:09;99011.52;;;15.62;83.86
60642;BME280;46837;52.446;-1.930;2022-09-09T04:59:09;99010.54;;;15.60;84.00
60642;BME280;46837;52.446;-1.930;2022-09-09T05:00:09;99011.18;;;15.63;83.89
60642;BME280;46837;52.446;-1.930;2022-09-09T05:01:10;99012.93;;;15.66;83.74
60642;BME280;46837;52.446;-1.930;2022-09-09T05:02:09;99014.56;;;15.64;83.72
60642;BME280;46837;52.446;-1.930;2022-09-09T05:03:09;99017.06;;;15.63;83.90
60642;BME280;46837;52.446;-1.930;2022-09-09T05:04:09;99016.91;;;15.65;83.90
60642;BME280;46837;52.446;-1.930;2022-09-09T05:05:09;99017.10;;;15.64;83.85
60642;BME280;46837;52.446;-1.930;2022-09-09T05:06:12;99016.61;;;15.64;83.88
60642;BME280;46837;52.446;-1.930;2022-09-09T05:07:09;99017.91;;;15.65;83.86
60642;BME280;46837;52.446;-1.930;2022-09-09T05:08:09;99019.10;;;15.65;83.80
60642;BME280;46837;52.446;-1.930;2022-09-09T05:09:09;99022.22;;;15.66;83.75
60642;BME280;46837;52.446;-1.930;2022-09-09T05:10:09;99021.05;;;15.66;83.81
60642;BME280;46837;52.446;-1.930;2022-09-09T05:12:09;99023.92;;;15.64;84.03
60642;BME280;46837;52.446;-1.930;2022-09-09T05:13:09;99026.33;;;15.67;83.86
60642;BME280;46837;52.446;-1.930;2022-09-09T05:14:09;99027.59;;;15.65;83.92
60642;BME280;46837;52.446;-1.930;2022-09-09T05:15:09;99025.36;;;15.66;83.94
60642;BME280;46837;52.446;-1.930;2022-09-09T05:16:09;99026.27;;;15.67;83.94
60642;BME280;46837;52.446;-1.930;2022-09-09T05:17:09;99024.63;;;15.69;83.83
60642;BME280;46837;52.446;-1.930;2022-09-09T05:18:09;99026.09;;;15.69;83.79
60642;BME280;46837;52.446;-1.930;2022-09-09T05:19:09;99024.71;;;15.69;83.86
60642;BME280;46837;52.446;-1.930;2022-09-09T05:20:09;99029.09;;;15.69;83.82
60642;BME280;46837;52.446;-1.930;2022-09-09T05:21:09;99026.56;;;15.70;83.72
60642;BME280;46837;52.446;-1.930;2022-09-09T05:22:09;99027.88;;;15.67;83.79
60642;BME280;46837;52.446;-1.930;2022-09-09T05:23:09;99029.39;;;15.66;83.89
60642;BME280;46837;52.446;-1.930;2022-09-09T05:24:09;99029.47;;;15.67;83.93
60642;BME280;46837;52.446;-1.930;2022-09-09T05:25:09;99035.11;;;15.68;83.85
60642;BME280;46837;52.446;-1.930;2022-09-09T05:26:13;99029.33;;;15.71;83.69
60642;BME280;46837;52.446;-1.930;2022-09-09T05:27:09;99033.17;;;15.70;83.81
60642;BME280;46837;52.446;-1.930;2022-09-09T05:28:10;99037.12;;;15.70;83.82
60642;BME280;46837;52.446;-1.930;2022-09-09T05:29:09;99036.45;;;15.70;83.76
60642;BME280;46837;52.446;-1.930;2022-09-09T05:30:09;99037.48;;;15.71;83.71
60642;BME280;46837;52.446;-1.930;2022-09-09T05:31:09;99040.55;;;15.73;83.62
60642;BME280;46837;52.446;-1.930;2022-09-09T05:32:09;99039.84;;;15.74;83.53
60642;BME280;46837;52.446;-1.930;2022-09-09T05:33:09;99039.27;;;15.73;83.45
60642;BME280;46837;52.446;-1.930;2022-09-09T05:34:09;99036.45;;;15.70;83.62
60642;BME280;46837;52.446;-1.930;2022-09-09T05:35:09;99037.96;;;15.70;83.67
60642;BME280;46837;52.446;-1.930;2022-09-09T05:36:12;99035.39;;;15.68;83.67
60642;BME280;46837;52.446;-1.930;2022-09-09T05:37:09;99034.89;;;15.69;83.79
60642;BME280;46837;52.446;-1.930;2022-09-09T05:38:09;99036.32;;;15.72;83.46
60642;BME280;46837;52.446;-1.930;2022-09-09T05:39:09;99036.99;;;15.71;83.47
60642;BME280;46837;52.446;-1.930;2022-09-09T05:40:09;99038.73;;;15.73;83.55
60642;BME280;46837;52.446;-1.930;2022-09-09T05:41:09;99036.70;;;15.74;83.49
60642;BME280;46837;52.446;-1.930;2022-09-09T05:42:09;99035.11;;;15.74;83.42
60642;BME280;46837;52.446;-1.930;2022-09-09T05:43:09;99037.55;;;15.73;83.54
60642;BME280;46837;52.446;-1.930;2022-09-09T05:44:09;99036.60;;;15.74;83.61
60642;BME280;46837;52.446;-1.930;2022-09-09T05:45:09;99039.43;;;15.73;83.69
60642;BME280;46837;52.446;-1.930;2022-09-09T05:46:16;99040.61;;;15.72;83.70
60642;BME280;46837;52.446;-1.930;2022-09-09T05:47:09;99041.14;;;15.72;83.76
60642;BME280;46837;52.446;-1.930;2022-09-09T05:48:09;99042.34;;;15.73;83.69
60642;BME280;46837;52.446;-1.930;2022-09-09T05:49:09;99047.71;;;15.72;83.67
60642;BME280;46837;52.446;-1.930;2022-09-09T05:50:09;99043.61;;;15.72;83.62
60642;BME280;46837;52.446;-1.930;2022-09-09T05:51:13;99044.91;;;15.72;83.61
60642;BME280;46837;52.446;-1.930;2022-09-09T05:52:09;99043.83;;;15.73;83.49
60642;BME280;46837;52.446;-1.930;2022-09-09T05:53:09;99045.39;;;15.74;83.45
60642;BME280;46837;52.446;-1.930;2022-09-09T05:54:09;99048.34;;;15.77;83.31
60642;BME280;46837;52.446;-1.930;2022-09-09T05:55:09;99048.62;;;15.75;83.26
60642;BME280;46837;52.446;-1.930;2022-09-09T05:56:09;99047.25;;;15.75;83.31
60642;BME280;46837;52.446;-1.930;2022-09-09T05:57:09;99050.30;;;15.78;83.20
60642;BME280;46837;52.446;-1.930;2022-09-09T05:58:09;99049.50;;;15.80;83.08
60642;BME280;46837;52.446;-1.930;2022-09-09T05:59:09;99053.99;;;15.79;83.17
60642;BME280;46837;52.446;-1.930;2022-09-09T06:00:09;99052.20;;;15.79;83.04
60642;BME280;46837;52.446;-1.930;2022-09-09T06:01:13;99053.18;;;15.79;83.00
60642;BME280;46837;52.446;-1.930;2022-09-09T06:02:09;99054.17;;;15.76;83.02
60642;BME280;46837;52.446;-1.930;2022-09-09T06:03:10;99054.05;;;15.77;82.94
60642;BME280;46837;52.446;-1.930;2022-09-09T06:04:09;99054.22;;;15.77;82.87
60642;BME280;46837;52.446;-1.930;2022-09-09T06:05:09;99055.23;;;15.75;82.82
60642;BME280;46837;52.446;-1.930;2022-09-09T06:06:10;99056.00;;;15.74;82.82